createdAt,value
2022-10-21T00:01:09.507Z,1.70
2022-10-21T00:03:38.418Z,1.58
2022-10-21T00:06:07.198Z,1.70
2022-10-21T00:08:35.900Z,1.50
2022-10-21T00:11:06.646Z,1.58
2022-10-21T00:13:36.296Z,1.70
2022-10-21T00:16:07.531Z,1.75
2022-10-21T00:18:39.073Z,1.50
2022-10-21T00:21:08.552Z,1.77
2022-10-21T00:23:36.937Z,1.65
2022-10-21T00:26:05.646Z,1.63
2022-10-21T00:28:34.028Z,1.70
2022-10-21T00:31:02.296Z,1.65
2022-10-21T00:33:30.495Z,1.73
2022-10-21T00:36:02.863Z,1.83
2022-10-21T00:38:31.718Z,1.80
2022-10-21T00:41:00.071Z,1.50
2022-10-21T00:43:29.183Z,1.73
2022-10-21T00:46:01.308Z,1.67
2022-10-21T00:48:35.171Z,1.58
2022-10-21T00:51:08.706Z,1.77
2022-10-21T00:53:40.729Z,1.70
2022-10-21T00:56:16.257Z,1.90
2022-10-21T00:58:46.711Z,1.73
2022-10-21T01:01:19.141Z,1.70
2022-10-21T01:03:50.173Z,2.35
2022-10-21T01:06:22.923Z,2.15
2022-10-21T01:08:52.982Z,1.73
2022-10-21T01:11:22.435Z,1.65
2022-10-21T01:14:15.872Z,1.58
2022-10-21T01:16:49.492Z,1.92
2022-10-21T01:19:57.359Z,1.80
2022-10-21T01:22:45.564Z,1.70
2022-10-21T01:25:46.472Z,1.52
2022-10-21T01:28:26.318Z,1.70
2022-10-21T01:30:58.757Z,1.80
2022-10-21T01:33:40.516Z,1.90
2022-10-21T01:36:22.995Z,1.67
2022-10-21T01:39:01.758Z,1.73
2022-10-21T01:41:36.243Z,1.90
2022-10-21T01:44:11.191Z,1.63
2022-10-21T01:46:46.383Z,2.00
2022-10-21T01:49:21.742Z,1.88
2022-10-21T01:51:51.503Z,1.83
2022-10-21T01:54:24.541Z,1.85
2022-10-21T01:56:54.821Z,2.00
2022-10-21T01:59:24.918Z,1.90
2022-10-21T02:01:56.202Z,1.73
2022-10-21T02:04:25.290Z,1.60
2022-10-21T02:06:53.504Z,1.70
2022-10-21T02:09:21.809Z,1.60
2022-10-21T02:11:52.966Z,1.58
2022-10-21T02:14:25.798Z,1.85
2022-10-21T02:16:59.073Z,1.90
2022-10-21T02:19:28.057Z,1.73
2022-10-21T02:22:00.243Z,1.63
2022-10-21T02:24:33.552Z,1.77
2022-10-21T02:27:01.864Z,1.80
2022-10-21T02:29:34.651Z,1.70
2022-10-21T02:32:17.183Z,1.77
2022-10-21T02:35:00.810Z,1.70
2022-10-21T02:37:33.570Z,1.70
2022-10-21T02:40:07.801Z,1.80
2022-10-21T02:42:41.118Z,1.42
2022-10-21T02:45:11.010Z,1.98
2022-10-21T02:47:41.480Z,1.50
2022-10-21T02:50:10.106Z,1.80
2022-10-21T02:52:38.299Z,1.77
2022-10-21T02:55:07.105Z,1.50
2022-10-21T02:57:35.518Z,1.88
2022-10-21T03:00:04.133Z,1.88
2022-10-21T03:02:32.330Z,2.00
2022-10-21T03:05:01.887Z,1.58
2022-10-21T03:07:30.060Z,1.70
2022-10-21T03:09:58.668Z,1.83
2022-10-21T03:12:26.848Z,1.83
2022-10-21T03:14:55.083Z,1.50
2022-10-21T03:17:25.263Z,1.80
2022-10-21T03:19:53.786Z,1.65
2022-10-21T03:22:23.355Z,1.73
2022-10-21T03:24:51.502Z,1.77
2022-10-21T03:27:19.715Z,2.15
2022-10-21T03:29:47.895Z,1.70
2022-10-21T03:32:16.199Z,1.60
2022-10-21T03:34:44.510Z,1.70
2022-10-21T03:37:12.718Z,1.92
2022-10-21T03:39:42.261Z,1.92
2022-10-21T03:42:10.468Z,1.70
2022-10-21T03:44:38.693Z,1.52
2022-10-21T03:47:06.891Z,1.80
2022-10-21T03:52:08.199Z,1.83
2022-10-21T03:54:36.524Z,1.88
2022-10-21T03:57:06.579Z,1.65
2022-10-21T03:59:34.818Z,1.85
2022-10-21T04:02:03.133Z,2.10
2022-10-21T04:04:31.415Z,1.85
2022-10-21T04:06:59.611Z,1.90
2022-10-21T04:09:27.999Z,1.90
2022-10-21T04:11:56.250Z,1.67
2022-10-21T04:14:25.862Z,1.90
2022-10-21T04:17:06.433Z,2.03
2022-10-21T04:19:35.211Z,2.00
2022-10-21T04:22:03.447Z,1.63
2022-10-21T04:24:31.783Z,2.00
2022-10-21T04:26:59.958Z,1.85
2022-10-21T04:29:29.499Z,1.88
2022-10-21T04:31:57.776Z,1.80
2022-10-21T04:34:26.043Z,1.70
2022-10-21T04:36:54.227Z,1.85
2022-10-21T04:39:22.428Z,2.00
2022-10-21T04:41:52.846Z,1.92
2022-10-21T04:44:21.052Z,1.73
2022-10-21T04:46:50.714Z,1.42
2022-10-21T04:49:19.082Z,1.60
2022-10-21T04:51:47.366Z,2.10
2022-10-21T04:54:15.620Z,2.13
2022-10-21T04:56:44.328Z,1.60
2022-10-21T04:59:12.499Z,1.70
2022-10-21T05:01:40.735Z,1.70
2022-10-21T05:04:10.275Z,1.63
2022-10-21T05:06:38.511Z,1.70
2022-10-21T05:09:06.867Z,1.90
2022-10-21T05:11:35.083Z,1.70
2022-10-21T05:14:03.366Z,1.60
2022-10-21T05:16:31.655Z,2.08
2022-10-21T05:19:00.451Z,1.63
2022-10-21T05:21:30.075Z,1.67
2022-10-21T05:23:58.425Z,1.80
2022-10-21T05:26:28.847Z,1.70
2022-10-21T05:28:57.025Z,1.67
2022-10-21T05:31:25.372Z,1.98
2022-10-21T05:33:53.739Z,1.45
2022-10-21T05:36:24.063Z,1.73
2022-10-21T05:38:54.359Z,1.80
2022-10-21T05:41:22.592Z,1.70
2022-10-21T05:43:50.769Z,1.60
2022-10-21T05:46:18.960Z,1.80
2022-10-21T05:51:16.279Z,1.55
2022-10-21T05:53:44.448Z,1.80
2022-10-21T05:56:13.995Z,1.67
2022-10-21T05:58:42.248Z,1.52
2022-10-21T06:01:10.534Z,1.80
2022-10-21T06:03:38.775Z,2.25
2022-10-21T06:06:09.046Z,1.70
2022-10-21T06:08:39.738Z,1.77
2022-10-21T06:11:09.670Z,1.58
2022-10-21T06:13:39.615Z,1.50
2022-10-21T06:16:09.815Z,1.80
2022-10-21T06:18:38.591Z,1.60
2022-10-21T06:21:07.354Z,1.60
2022-10-21T06:23:36.194Z,1.65
2022-10-21T06:26:07.254Z,1.58
2022-10-21T06:28:37.340Z,1.70
2022-10-21T06:31:07.898Z,1.70
2022-10-21T06:33:36.685Z,1.65
2022-10-21T06:36:05.409Z,1.70
2022-10-21T06:38:33.787Z,1.83
2022-10-21T06:41:03.684Z,1.80
2022-10-21T06:43:32.074Z,1.65
2022-10-21T06:46:02.100Z,1.52
2022-10-21T06:48:32.018Z,1.45
2022-10-21T06:51:01.311Z,1.75
2022-10-21T06:53:30.632Z,1.60
2022-10-21T06:56:04.645Z,1.50
2022-10-21T06:58:33.003Z,1.58
2022-10-21T07:01:16.660Z,1.75
2022-10-21T07:03:57.591Z,1.88
2022-10-21T07:06:25.982Z,1.60
2022-10-21T07:08:58.356Z,1.63
2022-10-21T07:11:27.436Z,1.63
2022-10-21T07:13:55.865Z,1.65
2022-10-21T07:16:26.140Z,1.50
2022-10-21T07:18:55.172Z,1.60
2022-10-21T07:21:26.961Z,1.85
2022-10-21T07:23:59.198Z,1.70
2022-10-21T07:26:29.326Z,1.50
2022-10-21T07:29:00.410Z,1.63
2022-10-21T07:31:30.022Z,1.55
2022-10-21T07:33:58.220Z,1.50
2022-10-21T07:36:30.308Z,1.70
2022-10-21T07:39:03.939Z,1.60
2022-10-21T07:41:37.201Z,1.67
2022-10-21T07:44:06.963Z,1.52
2022-10-21T07:46:35.330Z,1.88
2022-10-21T07:49:04.084Z,1.40
2022-10-21T07:51:33.718Z,1.50
2022-10-21T07:54:02.715Z,1.65
2022-10-21T07:56:32.690Z,1.45
2022-10-21T07:59:02.471Z,1.50
2022-10-21T08:01:30.932Z,1.60
2022-10-21T08:03:59.859Z,1.25
2022-10-21T08:06:29.057Z,1.58
2022-10-21T08:08:58.829Z,2.03
2022-10-21T08:11:28.640Z,1.60
2022-10-21T08:13:57.619Z,1.60
2022-10-21T08:16:26.675Z,1.65
2022-10-21T08:18:55.354Z,1.60
2022-10-21T08:21:23.831Z,1.40
2022-10-21T08:23:52.019Z,1.25
2022-10-21T08:26:21.702Z,1.92
2022-10-21T08:28:50.008Z,1.67
2022-10-21T08:31:20.446Z,1.38
2022-10-21T08:33:49.095Z,1.60
2022-10-21T08:36:19.504Z,1.52
2022-10-21T08:38:48.039Z,1.65
2022-10-21T08:41:37.539Z,1.42
2022-10-21T08:44:08.460Z,1.80
2022-10-21T08:46:41.667Z,1.80
2022-10-21T08:49:16.324Z,1.50
2022-10-21T08:51:50.600Z,1.42
2022-10-21T08:54:23.982Z,1.70
2022-10-21T08:56:59.159Z,1.67
2022-10-21T08:59:28.474Z,1.77
2022-10-21T09:02:03.903Z,1.52
2022-10-21T09:04:42.226Z,1.25
2022-10-21T09:07:19.508Z,1.50
2022-10-21T09:09:53.619Z,1.75
2022-10-21T09:12:30.572Z,1.70
2022-10-21T09:15:11.766Z,1.42
2022-10-21T09:17:57.514Z,1.52
2022-10-21T09:20:37.385Z,1.42
2022-10-21T09:23:18.626Z,1.80
2022-10-21T09:25:53.954Z,1.52
2022-10-21T09:28:25.740Z,1.40
2022-10-21T09:30:55.202Z,1.55
2022-10-21T09:33:26.628Z,1.50
2022-10-21T09:36:00.431Z,1.50
2022-10-21T09:38:34.876Z,1.63
2022-10-21T09:41:05.828Z,1.60
2022-10-21T09:43:35.683Z,1.70
2022-10-21T09:46:04.956Z,1.63
2022-10-21T09:49:08.224Z,1.60
2022-10-21T09:51:34.955Z,1.50
2022-10-21T09:54:10.126Z,1.50
2022-10-21T09:56:44.031Z,1.60
2022-10-21T09:59:16.379Z,1.48
2022-10-21T10:01:45.263Z,1.40
2022-10-21T10:04:15.389Z,1.52
2022-10-21T10:06:45.432Z,1.50
2022-10-21T10:09:18.735Z,1.70
2022-10-21T10:11:53.639Z,1.70
2022-10-21T10:14:30.477Z,1.60
2022-10-21T10:16:59.487Z,1.52
2022-10-21T10:19:29.318Z,1.50
2022-10-21T10:22:12.845Z,1.58
2022-10-21T10:24:42.151Z,1.30
2022-10-21T10:27:15.978Z,1.50
2022-10-21T10:29:53.512Z,1.50
2022-10-21T10:32:26.082Z,1.40
2022-10-21T10:34:57.319Z,1.50
2022-10-21T10:37:35.524Z,1.48
2022-10-21T10:40:07.939Z,1.38
2022-10-21T10:42:42.866Z,1.48
2022-10-21T10:45:19.675Z,1.30
2022-10-21T10:47:50.291Z,1.42
2022-10-21T10:50:52.094Z,1.40
2022-10-21T10:53:23.409Z,1.42
2022-10-21T10:56:02.471Z,1.50
2022-10-21T10:58:34.508Z,1.33
2022-10-21T11:01:10.662Z,1.40
2022-10-21T11:03:43.603Z,1.35
2022-10-21T11:06:17.603Z,1.38
2022-10-21T11:08:51.092Z,1.67
2022-10-21T11:11:25.730Z,1.58
2022-10-21T11:13:54.587Z,1.40
2022-10-21T11:16:50.347Z,1.48
2022-10-21T11:19:30.483Z,1.30
2022-10-21T11:22:11.801Z,1.50
2022-10-21T11:24:56.651Z,1.40
2022-10-21T11:27:44.783Z,1.27
2022-10-21T11:30:16.216Z,1.40
2022-10-21T11:33:05.182Z,1.30
2022-10-21T11:35:43.368Z,1.25
2022-10-21T11:38:48.111Z,1.60
2022-10-21T11:41:28.217Z,1.38
2022-10-21T11:44:09.426Z,1.50
2022-10-21T11:46:46.837Z,1.20
2022-10-21T11:49:31.256Z,1.80
2022-10-21T11:52:11.115Z,1.50
2022-10-21T11:55:09.542Z,1.38
2022-10-21T11:57:49.522Z,1.50
2022-10-21T12:00:21.228Z,1.40
2022-10-21T12:03:09.695Z,1.20
2022-10-21T12:05:47.839Z,1.40
2022-10-21T12:08:20.160Z,1.20
2022-10-21T12:10:53.240Z,1.38
2022-10-21T12:13:25.471Z,1.20
2022-10-21T12:15:57.139Z,1.30
2022-10-21T12:18:28.551Z,1.20
2022-10-21T12:20:59.758Z,1.40
2022-10-21T12:23:31.064Z,1.02
2022-10-21T12:26:17.642Z,1.25
2022-10-21T12:28:54.694Z,1.50
2022-10-21T12:31:38.385Z,1.27
2022-10-21T12:34:09.099Z,1.13
2022-10-21T12:36:50.619Z,1.20
2022-10-21T12:39:46.020Z,1.20
2022-10-21T12:42:16.053Z,1.10
2022-10-21T12:44:48.167Z,1.20
2022-10-21T12:47:30.943Z,1.35
2022-10-21T12:50:18.455Z,1.20
2022-10-21T12:53:03.643Z,1.10
2022-10-21T12:55:39.364Z,1.17
2022-10-21T12:58:18.665Z,1.20
2022-10-21T13:00:56.288Z,1.15
2022-10-21T13:03:52.864Z,1.33
2022-10-21T13:06:55.621Z,1.10
2022-10-21T13:09:38.878Z,1.00
2022-10-21T13:12:29.758Z,1.10
2022-10-21T13:14:59.490Z,1.05
2022-10-21T13:17:31.039Z,1.30
2022-10-21T13:20:34.603Z,1.00
2022-10-21T13:23:36.795Z,1.10
2022-10-21T13:26:24.037Z,1.10
2022-10-21T13:29:27.870Z,1.10
2022-10-21T13:32:22.307Z,1.00
2022-10-21T13:35:13.834Z,1.10
2022-10-21T13:37:51.335Z,1.20
2022-10-21T13:40:21.775Z,1.10
2022-10-21T13:42:58.738Z,1.30
2022-10-21T13:45:30.465Z,1.10
2022-10-21T13:48:05.822Z,1.20
2022-10-21T13:50:38.936Z,0.98
2022-10-21T13:53:28.447Z,0.95
2022-10-21T13:55:59.728Z,1.10
2022-10-21T13:58:31.381Z,1.10
2022-10-21T14:01:09.477Z,1.00
2022-10-21T14:03:37.710Z,1.13
2022-10-21T14:06:08.736Z,1.20
2022-10-21T14:08:41.837Z,1.10
2022-10-21T14:11:16.405Z,1.10
2022-10-21T14:13:47.830Z,1.00
2022-10-21T14:16:23.019Z,0.77
2022-10-21T14:18:52.160Z,1.08
2022-10-21T14:21:24.851Z,1.05
2022-10-21T14:23:53.796Z,1.00
2022-10-21T14:26:22.709Z,1.10
2022-10-21T14:28:53.056Z,0.90
2022-10-21T14:31:21.579Z,1.17
2022-10-21T14:33:49.922Z,1.40
2022-10-21T14:36:20.651Z,1.10
2022-10-21T14:38:58.817Z,0.85
2022-10-21T14:41:31.075Z,1.00
2022-10-21T14:44:07.842Z,1.10
2022-10-21T14:46:44.152Z,1.10
2022-10-21T14:49:24.753Z,0.90
2022-10-21T14:51:59.907Z,1.05
2022-10-21T14:54:33.842Z,1.00
2022-10-21T14:57:04.452Z,0.90
2022-10-21T14:59:39.139Z,1.00
2022-10-21T15:02:15.897Z,1.00
2022-10-21T15:04:52.226Z,1.13
2022-10-21T15:07:28.870Z,0.82
2022-10-21T15:10:13.990Z,1.13
2022-10-21T15:12:43.241Z,1.15
2022-10-21T15:15:49.706Z,1.20
2022-10-21T15:18:23.161Z,1.05
2022-10-21T15:20:56.993Z,0.88
2022-10-21T15:23:28.584Z,0.85
2022-10-21T15:26:00.845Z,0.90
2022-10-21T15:28:31.792Z,1.20
2022-10-21T15:31:02.541Z,0.98
2022-10-21T15:33:31.392Z,1.10
2022-10-21T15:36:04.504Z,1.05
2022-10-21T15:38:32.784Z,0.93
2022-10-21T15:41:01.042Z,0.90
2022-10-21T15:43:29.368Z,1.00
2022-10-21T15:45:57.688Z,1.00
2022-10-21T15:48:28.104Z,0.90
2022-10-21T15:50:57.788Z,0.90
2022-10-21T15:53:26.302Z,1.13
2022-10-21T15:55:55.003Z,0.88
2022-10-21T15:58:23.330Z,1.00
2022-10-21T16:00:51.567Z,1.00
2022-10-21T16:03:19.801Z,1.10
2022-10-21T16:05:49.371Z,0.98
2022-10-21T16:08:17.604Z,1.10
2022-10-21T16:10:47.833Z,1.08
2022-10-21T16:13:16.501Z,0.98
2022-10-21T16:15:44.750Z,0.90
2022-10-21T16:18:14.793Z,0.90
2022-10-21T16:20:44.478Z,0.90
2022-10-21T16:23:14.022Z,0.73
2022-10-21T16:25:42.169Z,1.02
2022-10-21T16:28:13.187Z,1.10
2022-10-21T16:30:41.875Z,0.90
2022-10-21T16:33:11.227Z,0.93
2022-10-21T16:35:39.552Z,0.90
2022-10-21T16:38:07.855Z,1.10
2022-10-21T16:40:38.018Z,1.10
2022-10-21T16:43:06.311Z,0.90
2022-10-21T16:45:34.647Z,1.00
2022-10-21T16:48:05.443Z,0.80
2022-10-21T16:50:39.505Z,1.02
2022-10-21T16:53:08.664Z,0.85
2022-10-21T16:55:38.195Z,0.85
2022-10-21T16:58:06.394Z,0.93
2022-10-21T17:00:34.901Z,0.80
2022-10-21T17:03:03.459Z,1.00
2022-10-21T17:05:31.753Z,0.90
2022-10-21T17:08:00.159Z,0.80
2022-10-21T17:10:28.411Z,0.80
2022-10-21T17:12:59.207Z,1.20
2022-10-21T17:15:28.551Z,0.90
2022-10-21T17:17:56.895Z,0.80
2022-10-21T17:20:29.779Z,0.90
2022-10-21T17:22:58.350Z,0.93
2022-10-21T17:25:27.466Z,0.80
2022-10-21T17:27:57.436Z,0.98
2022-10-21T17:30:26.682Z,0.90
2022-10-21T17:32:54.843Z,0.95
2022-10-21T17:35:23.241Z,0.90
2022-10-21T17:37:52.727Z,0.88
2022-10-21T17:40:22.746Z,0.93
2022-10-21T17:42:51.859Z,0.90
2022-10-21T17:45:23.030Z,0.80
2022-10-21T17:47:52.520Z,0.93
2022-10-21T17:50:24.307Z,0.90
2022-10-21T17:52:53.470Z,0.70
2022-10-21T17:55:22.449Z,1.00
2022-10-21T17:57:50.829Z,0.85
2022-10-21T18:00:19.143Z,0.80
2022-10-21T18:02:48.909Z,0.90
2022-10-21T18:05:17.356Z,0.70
2022-10-21T18:07:45.558Z,0.82
2022-10-21T18:10:13.788Z,0.80
2022-10-21T18:12:42.260Z,0.82
2022-10-21T18:15:11.239Z,0.90
2022-10-21T18:17:40.006Z,0.80
2022-10-21T18:20:11.079Z,1.00
2022-10-21T18:22:39.691Z,1.00
2022-10-21T18:25:08.871Z,0.90
2022-10-21T18:27:37.375Z,0.90
2022-10-21T18:30:06.552Z,0.80
2022-10-21T18:32:35.102Z,0.85
2022-10-21T18:35:03.598Z,0.90
2022-10-21T18:37:34.010Z,0.95
2022-10-21T18:40:03.850Z,1.10
2022-10-21T18:42:32.021Z,1.00
2022-10-21T18:45:00.265Z,0.85
2022-10-21T18:47:28.685Z,0.70
2022-10-21T18:49:56.869Z,1.10
2022-10-21T18:52:25.378Z,0.80
2022-10-21T18:54:55.001Z,1.08
2022-10-21T18:57:23.176Z,0.80
2022-10-21T18:59:51.318Z,0.82
2022-10-21T19:02:22.160Z,1.00
2022-10-21T19:04:50.872Z,0.70
2022-10-21T19:07:19.633Z,0.82
2022-10-21T19:09:47.859Z,0.75
2022-10-21T19:12:20.958Z,1.00
2022-10-21T19:14:51.499Z,0.90
2022-10-21T19:17:20.073Z,0.90
2022-10-21T19:19:48.219Z,0.90
2022-10-21T19:22:17.279Z,0.90
2022-10-21T19:24:45.612Z,1.02
2022-10-21T19:27:13.774Z,1.00
2022-10-21T19:29:44.168Z,0.80
2022-10-21T19:32:15.499Z,0.95
2022-10-21T19:34:44.406Z,0.80
2022-10-21T19:37:12.884Z,1.00
2022-10-21T19:39:41.115Z,0.90
2022-10-21T19:42:09.291Z,0.98
2022-10-21T19:44:37.611Z,0.90
2022-10-21T19:47:07.173Z,0.95
2022-10-21T19:49:35.507Z,1.00
2022-10-21T19:52:05.175Z,0.90
2022-10-21T19:54:33.390Z,0.93
2022-10-21T19:57:01.586Z,0.82
2022-10-21T19:59:29.791Z,0.90
2022-10-21T20:01:58.014Z,0.90
2022-10-21T20:04:28.748Z,1.00
2022-10-21T20:07:01.406Z,0.82
2022-10-21T20:09:30.086Z,0.98
2022-10-21T20:11:59.407Z,1.00
2022-10-21T20:14:27.648Z,0.90
2022-10-21T20:16:55.849Z,1.08
2022-10-21T20:19:24.058Z,1.00
2022-10-21T20:21:53.691Z,0.88
2022-10-21T20:24:21.907Z,0.90
2022-10-21T20:26:51.366Z,0.93
2022-10-21T20:29:19.811Z,0.90
2022-10-21T20:31:48.020Z,0.80
2022-10-21T20:34:16.560Z,1.00
2022-10-21T20:36:45.388Z,0.90
2022-10-21T20:39:15.239Z,1.00
2022-10-21T20:41:43.479Z,0.90
2022-10-21T20:44:16.065Z,1.00
2022-10-21T20:46:44.556Z,1.13
2022-10-21T20:49:13.218Z,1.05
2022-10-21T20:51:43.139Z,0.90
2022-10-21T20:54:16.204Z,1.00
2022-10-21T20:56:44.656Z,1.20
2022-10-21T20:59:15.150Z,0.80
2022-10-21T21:01:45.254Z,1.00
2022-10-21T21:04:15.218Z,1.33
2022-10-21T21:06:44.984Z,0.98
2022-10-21T21:12:05.018Z,1.20
2022-10-21T21:14:33.412Z,0.90
2022-10-21T21:17:01.811Z,1.02
2022-10-21T21:19:30.309Z,0.80
2022-10-21T21:21:58.524Z,0.90
2022-10-21T21:24:28.187Z,1.10
2022-10-21T21:26:56.337Z,0.98
2022-10-21T21:29:24.644Z,0.90
2022-10-21T21:31:52.878Z,0.90
2022-10-21T21:34:21.044Z,1.08
2022-10-21T21:36:49.250Z,1.20
2022-10-21T21:39:17.413Z,1.10
2022-10-21T21:41:47.032Z,1.10
2022-10-21T21:44:15.254Z,1.00
2022-10-21T21:46:43.433Z,0.90
2022-10-21T21:49:11.924Z,1.20
2022-10-21T21:51:40.068Z,1.20
2022-10-21T21:54:08.702Z,1.00
2022-10-21T21:56:37.323Z,0.98
2022-10-21T21:59:06.844Z,1.10
2022-10-21T22:01:35.188Z,1.10
2022-10-21T22:04:03.545Z,1.20
2022-10-21T22:06:33.912Z,1.00
2022-10-21T22:09:02.913Z,1.02
2022-10-21T22:11:33.388Z,1.10
2022-10-21T22:14:01.831Z,1.30
2022-10-21T22:16:31.454Z,1.02
2022-10-21T22:19:01.451Z,0.90
2022-10-21T22:21:31.605Z,1.10
2022-10-21T22:24:00.183Z,0.95
2022-10-21T22:26:29.793Z,1.00
2022-10-21T22:28:58.060Z,1.15
2022-10-21T22:31:29.537Z,1.05
2022-10-21T22:34:02.178Z,1.05
2022-10-21T22:36:30.909Z,1.20
2022-10-21T22:38:59.149Z,1.10
2022-10-21T22:41:27.927Z,1.08
2022-10-21T22:43:56.196Z,1.00
2022-10-21T22:46:39.908Z,1.20
2022-10-21T22:49:10.639Z,1.10
2022-10-21T22:51:38.885Z,1.00
2022-10-21T22:54:15.150Z,0.95
2022-10-21T22:56:52.401Z,1.10
2022-10-21T22:59:20.869Z,1.17
2022-10-21T23:01:49.148Z,0.90
2022-10-21T23:04:18.711Z,1.00
2022-10-21T23:06:46.870Z,1.02
2022-10-21T23:09:15.115Z,1.10
2022-10-21T23:11:43.314Z,1.10
2022-10-21T23:14:11.483Z,1.10
2022-10-21T23:16:39.659Z,1.23
2022-10-21T23:19:08.985Z,1.10
2022-10-21T23:21:39.777Z,0.95
2022-10-21T23:24:08.619Z,1.20
2022-10-21T23:26:36.823Z,1.10
2022-10-21T23:29:05.914Z,1.00
2022-10-21T23:31:34.123Z,1.48
2022-10-21T23:34:02.793Z,1.25
2022-10-21T23:36:30.987Z,1.00
2022-10-21T23:39:01.762Z,1.20
2022-10-21T23:41:30.091Z,1.10
2022-10-21T23:43:58.393Z,0.93
2022-10-21T23:48:55.671Z,1.15
2022-10-21T23:51:23.989Z,1.05
2022-10-21T23:53:52.177Z,1.02
2022-10-21T23:56:21.681Z,1.00
2022-10-21T23:58:49.889Z,1.00
